Time;durP1;ratioP1;P1;durP2;ratioP2;P2;SDS_P1;SDS_P2;PMS_P1;PMS_P2;Temp;Humidity;BMP_temperature;BMP_pressure;BME280_temperature;BME280_humidity;BME280_pressure;Samples;Min_cycle;Max_cycle;Signal;HPM_P1;HPM_P2
2023/06/08 00:02:17;;;;;;;21.90;9.02;;;10.80;99.90;;;;;;5033122;28;20436;-88
2023/06/08 00:04:44;;;;;;;25.55;9.40;;;11.10;99.90;;;;;;5035274;28;20054;-89
2023/06/08 00:07:14;;;;;;;18.55;9.02;;;10.80;99.90;;;;;;5033558;28;20045;-88
2023/06/08 00:09:40;;;;;;;19.35;9.07;;;10.80;99.90;;;;;;5034567;28;20041;-88
2023/06/08 00:12:07;;;;;;;22.95;8.95;;;10.90;99.90;;;;;;5033367;28;20428;-87
2023/06/08 00:14:36;;;;;;;25.40;10.32;;;10.80;99.90;;;;;;5034114;28;20128;-88
2023/06/08 00:17:02;;;;;;;23.10;9.25;;;10.80;99.90;;;;;;5034663;28;20397;-88
2023/06/08 00:19:29;;;;;;;20.80;9.48;;;10.80;99.90;;;;;;5034010;28;20041;-89
2023/06/08 00:21:56;;;;;;;19.73;9.48;;;10.80;99.90;;;;;;5042865;28;20366;-88
2023/06/08 00:24:22;;;;;;;19.65;9.20;;;10.80;99.90;;;;;;5040662;28;20397;-88
2023/06/08 00:26:48;;;;;;;21.80;9.25;;;10.90;99.90;;;;;;5037225;28;20508;-88
2023/06/08 00:29:14;;;;;;;22.50;8.90;;;10.90;99.90;;;;;;5032990;28;20125;-88
2023/06/08 00:31:40;;;;;;;21.48;9.30;;;10.90;99.90;;;;;;5033837;28;20073;-88
2023/06/08 00:34:05;;;;;;;21.38;8.95;;;10.90;99.90;;;;;;5033292;28;20049;-88
2023/06/08 00:36:31;;;;;;;19.92;9.88;;;11.00;99.90;;;;;;5034652;28;20103;-89
2023/06/08 00:38:57;;;;;;;22.55;9.52;;;11.50;99.90;;;;;;5032730;28;20049;-89
2023/06/08 00:41:22;;;;;;;20.17;9.00;;;11.90;99.90;;;;;;5034269;28;20049;-89
2023/06/08 00:43:48;;;;;;;21.83;9.30;;;11.50;99.90;;;;;;5034751;28;20459;-88
2023/06/08 00:46:16;;;;;;;23.63;9.00;;;11.00;99.90;;;;;;5033631;28;20037;-87
2023/06/08 00:48:42;;;;;;;20.83;9.48;;;11.00;99.90;;;;;;5032880;28;20046;-88
2023/06/08 00:51:09;;;;;;;20.13;9.07;;;11.00;99.90;;;;;;5032302;28;20052;-89
2023/06/08 00:53:36;;;;;;;26.08;9.43;;;11.10;99.90;;;;;;5032574;28;20059;-88
2023/06/08 00:56:03;;;;;;;24.38;9.77;;;11.60;99.90;;;;;;5034350;28;20077;-88
2023/06/08 00:58:29;;;;;;;23.38;9.60;;;11.10;99.90;;;;;;5033265;28;20041;-88
2023/06/08 01:01:03;;;;;;;21.38;9.35;;;11.10;99.90;;;;;;5032965;28;20037;-87
2023/06/08 01:03:35;;;;;;;23.80;9.70;;;11.90;99.90;;;;;;5032322;28;20111;-88
2023/06/08 01:06:02;;;;;;;20.42;9.00;;;11.20;99.90;;;;;;5033392;28;20063;-88
2023/06/08 01:08:54;;;;;;;18.73;8.77;;;11.80;99.90;;;;;;5033805;28;20038;-88
2023/06/08 01:11:50;;;;;;;20.40;8.48;;;11.10;99.90;;;;;;5032651;28;20049;-88
2023/06/08 01:14:43;;;;;;;20.20;8.85;;;11.10;99.90;;;;;;5033173;28;20051;-89
2023/06/08 01:17:12;;;;;;;19.92;8.40;;;11.10;99.90;;;;;;5033674;28;20085;-88
2023/06/08 01:19:52;;;;;;;18.63;8.60;;;11.00;99.90;;;;;;5031668;28;20099;-88
2023/06/08 01:22:34;;;;;;;19.67;8.50;;;11.00;99.90;;;;;;5033301;28;20057;-88
2023/06/08 01:25:02;;;;;;;21.25;9.13;;;11.00;99.90;;;;;;5033905;28;20037;-88
2023/06/08 01:27:37;;;;;;;16.08;7.93;;;11.50;99.90;;;;;;5031360;28;20053;-88
2023/06/08 01:30:04;;;;;;;16.83;7.82;;;11.10;99.90;;;;;;5033630;28;20069;-88
2023/06/08 01:32:30;;;;;;;17.90;8.18;;;11.10;99.90;;;;;;5031495;28;20038;-88
2023/06/08 01:34:56;;;;;;;18.92;7.55;;;11.10;99.90;;;;;;5031879;28;20054;-89
2023/06/08 01:37:41;;;;;;;17.20;8.63;;;11.10;99.90;;;;;;5031672;28;20049;-89
2023/06/08 01:40:19;;;;;;;19.30;8.30;;;11.00;99.90;;;;;;5032408;28;20064;-88
2023/06/08 01:42:50;;;;;;;21.40;8.63;;;11.00;99.90;;;;;;5033884;28;20045;-88
2023/06/08 01:45:22;;;;;;;17.73;8.02;;;11.20;99.90;;;;;;5033283;28;20046;-89
2023/06/08 01:47:52;;;;;;;19.85;8.40;;;10.90;99.90;;;;;;5032793;28;20088;-89
2023/06/08 01:50:20;;;;;;;18.73;8.20;;;10.80;99.90;;;;;;5033181;28;20042;-89
2023/06/08 01:52:47;;;;;;;20.27;8.27;;;10.90;99.90;;;;;;5033893;28;20045;-89
2023/06/08 01:55:18;;;;;;;15.65;7.60;;;11.70;99.90;;;;;;5039528;28;20378;-89
2023/06/08 01:57:44;;;;;;;19.80;8.55;;;10.90;99.90;;;;;;5033359;28;20551;-88
2023/06/08 02:00:12;;;;;;;20.33;8.55;;;11.80;99.90;;;;;;5033162;28;20041;-88
2023/06/08 02:02:37;;;;;;;21.13;8.73;;;10.90;99.90;;;;;;5051406;28;20041;-89
2023/06/08 02:05:07;;;;;;;20.00;8.98;;;11.60;99.90;;;;;;5052855;28;20064;-88
2023/06/08 02:07:33;;;;;;;20.92;8.40;;;10.90;99.90;;;;;;5051686;28;20057;-89
2023/06/08 02:09:58;;;;;;;18.95;8.75;;;10.90;99.90;;;;;;5051100;28;20392;-89
2023/06/08 02:12:24;;;;;;;18.52;7.78;;;10.80;99.90;;;;;;5052558;28;20045;-88
2023/06/08 02:14:50;;;;;;;22.80;8.10;;;10.90;99.90;;;;;;5053053;28;20037;-88
2023/06/08 02:17:18;;;;;;;15.40;8.18;;;10.80;99.90;;;;;;5050539;28;20087;-88
2023/06/08 02:19:44;;;;;;;21.25;9.02;;;10.90;99.90;;;;;;5053747;28;20051;-89
2023/06/08 02:22:10;;;;;;;19.25;9.30;;;10.80;99.90;;;;;;5051126;28;20048;-89
2023/06/08 02:24:35;;;;;;;20.45;9.73;;;10.90;99.90;;;;;;5059173;28;20049;-89
2023/06/08 02:27:02;;;;;;;19.67;9.27;;;10.80;99.90;;;;;;5076712;28;20032;-89
2023/06/08 02:29:28;;;;;;;18.60;9.60;;;10.80;99.90;;;;;;5064961;28;20076;-89
2023/06/08 02:31:53;;;;;;;18.52;8.88;;;11.00;99.90;;;;;;5060556;28;20492;-89
2023/06/08 02:34:19;;;;;;;20.50;9.07;;;10.80;99.90;;;;;;5055102;28;20408;-89
2023/06/08 02:36:47;;;;;;;21.38;9.70;;;10.80;99.90;;;;;;5052372;28;20488;-89
2023/06/08 02:39:13;;;;;;;20.33;9.82;;;11.50;99.90;;;;;;5051436;28;20076;-89
2023/06/08 02:41:39;;;;;;;20.33;10.07;;;10.70;99.90;;;;;;5052780;28;20047;-89
2023/06/08 02:44:05;;;;;;;19.63;9.07;;;11.70;99.90;;;;;;5051627;28;20435;-89
2023/06/08 02:46:32;;;;;;;22.90;9.27;;;11.60;99.90;;;;;;5056476;28;20450;-88
2023/06/08 02:48:58;;;;;;;19.63;9.30;;;10.80;99.90;;;;;;5055297;28;20053;-90
2023/06/08 02:51:23;;;;;;;22.25;9.27;;;10.90;99.90;;;;;;5055793;28;20037;-89
2023/06/08 02:53:49;;;;;;;19.70;9.27;;;10.70;99.90;;;;;;5055096;28;20052;-89
2023/06/08 02:56:15;;;;;;;21.88;9.27;;;10.90;99.90;;;;;;5054790;28;20041;-89
2023/06/08 02:58:46;;;;;;;19.27;8.90;;;11.10;99.90;;;;;;5054874;28;20439;-88
2023/06/08 03:01:14;;;;;;;19.88;8.70;;;10.70;99.90;;;;;;5056494;28;20120;-89
2023/06/08 03:03:42;;;;;;;19.40;8.45;;;10.70;99.90;;;;;;5056648;28;20080;-88
2023/06/08 03:06:09;;;;;;;23.48;9.38;;;10.90;99.90;;;;;;5054071;28;20057;-88
2023/06/08 03:08:36;;;;;;;20.15;8.18;;;10.70;99.90;;;;;;5055179;28;20496;-88
2023/06/08 03:11:02;;;;;;;18.58;8.00;;;10.70;99.90;;;;;;5055347;28;20037;-89
2023/06/08 03:13:28;;;;;;;18.95;8.57;;;10.60;99.90;;;;;;5053764;28;20078;-90
2023/06/08 03:15:53;;;;;;;19.15;8.45;;;11.50;99.90;;;;;;5055211;28;20084;-89
2023/06/08 03:18:19;;;;;;;19.38;9.25;;;10.70;99.90;;;;;;5056131;28;20040;-88
2023/06/08 03:20:47;;;;;;;20.20;8.50;;;10.60;99.90;;;;;;5055760;28;20060;-89
2023/06/08 03:23:13;;;;;;;25.52;9.63;;;11.40;99.90;;;;;;5055690;28;20557;-89
2023/06/08 03:25:39;;;;;;;18.95;8.90;;;10.70;99.90;;;;;;5057540;28;20049;-88
2023/06/08 03:28:04;;;;;;;20.80;9.07;;;10.70;99.90;;;;;;5059709;28;20051;-87
2023/06/08 03:30:30;;;;;;;19.50;8.38;;;10.70;99.90;;;;;;5054505;28;20369;-89
2023/06/08 03:32:56;;;;;;;18.25;8.18;;;10.70;99.90;;;;;;5055006;28;20040;-88
2023/06/08 03:35:21;;;;;;;20.88;8.30;;;10.70;99.90;;;;;;5053884;28;20079;-89
2023/06/08 03:37:47;;;;;;;19.13;8.60;;;11.30;99.90;;;;;;5054779;28;20044;-88
2023/06/08 03:40:13;;;;;;;19.05;8.35;;;10.80;99.90;;;;;;5056051;28;20056;-89
2023/06/08 03:42:38;;;;;;;22.88;9.05;;;10.80;99.90;;;;;;5054537;28;20543;-88
2023/06/08 03:45:05;;;;;;;19.35;9.05;;;10.80;99.90;;;;;;5054485;28;20047;-89
2023/06/08 03:47:31;;;;;;;20.90;9.07;;;10.80;99.90;;;;;;5055066;28;20396;-88
2023/06/08 03:49:57;;;;;;;18.77;9.57;;;10.80;99.90;;;;;;5055532;28;20041;-88
2023/06/08 03:52:22;;;;;;;19.75;9.38;;;10.80;99.90;;;;;;5053667;28;20455;-88
2023/06/08 03:54:48;;;;;;;21.58;9.32;;;10.90;99.90;;;;;;5053327;28;20037;-89
2023/06/08 03:57:15;;;;;;;21.10;9.10;;;10.70;99.90;;;;;;5053826;28;20397;-88
2023/06/08 03:59:41;;;;;;;19.42;8.80;;;10.70;99.90;;;;;;5055332;28;20041;-89
2023/06/08 04:02:07;;;;;;;23.52;9.68;;;11.20;99.90;;;;;;5039413;28;20052;-88
2023/06/08 04:04:35;;;;;;;17.02;8.55;;;10.80;99.90;;;;;;5047381;28;20609;-88
2023/06/08 04:07:01;;;;;;;20.80;9.18;;;10.80;99.90;;;;;;5053327;28;20476;-88
2023/06/08 04:09:27;;;;;;;19.98;8.88;;;10.80;99.90;;;;;;5068560;28;20127;-88
2023/06/08 04:11:53;;;;;;;20.90;8.32;;;10.80;99.90;;;;;;5056111;28;20051;-89
2023/06/08 04:14:19;;;;;;;21.52;7.93;;;10.90;99.90;;;;;;5053458;28;20049;-88
2023/06/08 04:16:44;;;;;;;19.38;7.93;;;10.90;99.90;;;;;;5054209;28;20174;-88
2023/06/08 04:19:10;;;;;;;20.25;7.88;;;10.90;99.90;;;;;;5054526;28;20075;-88
2023/06/08 04:21:36;;;;;;;18.77;8.30;;;11.00;99.90;;;;;;5054959;28;20122;-89
2023/06/08 04:24:02;;;;;;;18.70;8.68;;;11.00;99.90;;;;;;5053011;28;20083;-89
2023/06/08 04:26:28;;;;;;;19.48;8.43;;;11.00;99.90;;;;;;5053414;28;20049;-89
2023/06/08 04:28:54;;;;;;;20.73;8.38;;;11.90;99.90;;;;;;5054813;28;20045;-89
2023/06/08 04:31:20;;;;;;;19.80;8.32;;;11.00;99.90;;;;;;5052417;28;20063;-88
2023/06/08 04:33:46;;;;;;;21.92;9.00;;;11.60;99.90;;;;;;5053202;28;20032;-89
2023/06/08 04:36:11;;;;;;;16.98;8.00;;;11.00;99.90;;;;;;5052113;28;20049;-89
2023/06/08 04:38:37;;;;;;;21.60;9.18;;;11.00;99.90;;;;;;5053126;28;20385;-89
2023/06/08 04:41:07;;;;;;;18.88;8.38;;;11.00;99.90;;;;;;5053504;28;20072;-88
2023/06/08 04:43:33;;;;;;;20.80;8.52;;;11.00;99.90;;;;;;5054075;28;20029;-88
2023/06/08 04:45:59;;;;;;;19.02;8.73;;;11.40;99.90;;;;;;5053603;28;20056;-89
2023/06/08 04:48:28;;;;;;;22.05;9.25;;;11.00;99.90;;;;;;5055090;28;20369;-89
2023/06/08 04:50:59;;;;;;;20.58;9.13;;;11.00;99.90;;;;;;5052803;28;20491;-88
2023/06/08 04:53:25;;;;;;;19.95;9.30;;;11.00;99.90;;;;;;5054849;28;20064;-88
2023/06/08 04:55:57;;;;;;;20.67;9.90;;;11.20;99.90;;;;;;5054438;28;20056;-88
2023/06/08 04:58:26;;;;;;;21.80;9.45;;;11.70;99.90;;;;;;5055318;28;20120;-89
2023/06/08 05:00:52;;;;;;;23.40;10.43;;;11.70;99.90;;;;;;5057675;28;20162;-88
2023/06/08 05:03:19;;;;;;;21.90;10.18;;;11.10;99.90;;;;;;5054846;28;20045;-88
2023/06/08 05:05:45;;;;;;;23.63;9.80;;;11.40;99.90;;;;;;5052493;28;20055;-88
2023/06/08 05:08:11;;;;;;;21.20;10.07;;;11.80;99.90;;;;;;5052287;28;20044;-88
2023/06/08 05:10:36;;;;;;;22.17;10.20;;;11.50;99.90;;;;;;5053934;28;20051;-88
2023/06/08 05:13:02;;;;;;;21.70;10.70;;;11.40;99.90;;;;;;5053315;28;20029;-88
2023/06/08 05:15:30;;;;;;;22.17;11.57;;;11.50;99.90;;;;;;5052409;28;20037;-89
2023/06/08 05:17:56;;;;;;;28.77;12.40;;;11.40;99.90;;;;;;5053719;28;20052;-88
2023/06/08 05:20:24;;;;;;;24.42;11.27;;;11.30;99.90;;;;;;5052760;28;20049;-89
2023/06/08 05:22:50;;;;;;;20.67;11.75;;;11.30;99.90;;;;;;5053485;28;20381;-88
2023/06/08 05:25:16;;;;;;;22.95;10.88;;;12.00;99.90;;;;;;5053723;28;20123;-88
2023/06/08 05:27:42;;;;;;;24.95;11.10;;;11.30;99.90;;;;;;5053871;28;20040;-88
2023/06/08 05:30:08;;;;;;;23.88;11.50;;;11.70;99.90;;;;;;5057429;28;20472;-88
2023/06/08 05:32:34;;;;;;;27.63;12.32;;;11.30;99.90;;;;;;5073455;28;20079;-89
2023/06/08 05:35:00;;;;;;;29.42;12.38;;;12.10;99.90;;;;;;5058463;28;20104;-88
2023/06/08 05:37:26;;;;;;;21.95;11.80;;;11.40;99.90;;;;;;5055854;28;20049;-88
2023/06/08 05:39:51;;;;;;;27.75;12.60;;;11.40;99.90;;;;;;5053260;28;20037;-89
2023/06/08 05:42:17;;;;;;;29.33;12.88;;;11.50;99.90;;;;;;5052217;28;20484;-88
2023/06/08 05:44:43;;;;;;;25.10;12.38;;;11.60;99.90;;;;;;5052026;28;20087;-88
2023/06/08 05:47:10;;;;;;;24.55;12.07;;;11.60;99.90;;;;;;5052591;28;20041;-89
2023/06/08 05:49:37;;;;;;;25.63;11.10;;;11.70;99.90;;;;;;5051894;28;20036;-87
2023/06/08 05:52:03;;;;;;;24.08;11.50;;;11.80;99.90;;;;;;5053047;28;20499;-89
2023/06/08 05:54:29;;;;;;;23.40;10.98;;;11.90;99.90;;;;;;5050811;28;20064;-88
2023/06/08 05:56:55;;;;;;;21.25;11.05;;;11.90;99.90;;;;;;5053253;28;20049;-88
2023/06/08 05:59:20;;;;;;;22.88;11.02;;;12.30;99.90;;;;;;5052195;28;20065;-88
2023/06/08 06:01:47;;;;;;;21.88;10.63;;;12.50;99.90;;;;;;5053025;28;20045;-88
2023/06/08 06:04:13;;;;;;;19.98;10.23;;;12.90;99.90;;;;;;5055484;28;20116;-88
2023/06/08 06:06:39;;;;;;;23.10;9.85;;;12.10;99.90;;;;;;5052550;28;20465;-87
2023/06/08 06:09:04;;;;;;;20.45;9.90;;;12.30;99.90;;;;;;5052722;28;20048;-88
2023/06/08 06:11:30;;;;;;;22.63;10.15;;;12.40;99.90;;;;;;5051765;28;20473;-88
2023/06/08 06:13:57;;;;;;;20.10;8.85;;;12.80;99.90;;;;;;5051893;28;20080;-88
2023/06/08 06:16:23;;;;;;;20.95;8.80;;;12.90;99.90;;;;;;5052186;28;20041;-89
2023/06/08 06:18:50;;;;;;;21.05;8.35;;;12.50;99.90;;;;;;5052679;28;20041;-89
2023/06/08 06:21:16;;;;;;;17.25;8.43;;;13.30;99.90;;;;;;5051854;28;20104;-89
2023/06/08 06:23:43;;;;;;;15.77;7.05;;;12.60;99.90;;;;;;5052695;28;20041;-89
2023/06/08 06:26:10;;;;;;;19.42;8.43;;;12.70;99.90;;;;;;5052616;28;20515;-87
2023/06/08 06:28:35;;;;;;;17.30;9.02;;;12.70;99.90;;;;;;5053724;28;20041;-89
2023/06/08 06:31:01;;;;;;;17.65;8.38;;;12.80;99.90;;;;;;5052178;28;20059;-88
2023/06/08 06:33:26;;;;;;;18.50;7.68;;;13.20;99.90;;;;;;5052555;28;20483;-89
2023/06/08 06:35:53;;;;;;;18.02;7.30;;;13.30;99.90;;;;;;5052050;28;20083;-88
2023/06/08 06:38:20;;;;;;;19.27;7.70;;;13.90;99.90;;;;;;5052726;28;20114;-88
2023/06/08 06:40:47;;;;;;;17.67;7.53;;;13.10;99.90;;;;;;5051807;28;20057;-89
2023/06/08 06:43:13;;;;;;;15.07;7.30;;;13.40;99.90;;;;;;5051856;28;20041;-90
2023/06/08 06:45:38;;;;;;;15.85;7.10;;;13.20;99.90;;;;;;5052590;28;20095;-89
2023/06/08 06:48:04;;;;;;;14.63;6.60;;;14.10;99.90;;;;;;5052735;28;20045;-89
2023/06/08 06:50:31;;;;;;;19.58;6.70;;;13.30;99.90;;;;;;5050385;28;20045;-89
2023/06/08 06:52:56;;;;;;;14.73;6.90;;;13.40;99.90;;;;;;5050959;28;20146;-88
2023/06/08 06:55:22;;;;;;;16.88;7.20;;;13.50;99.90;;;;;;5050778;28;20450;-89
2023/06/08 06:57:48;;;;;;;15.85;6.18;;;13.40;99.90;;;;;;5050546;28;20045;-89
2023/06/08 07:00:14;;;;;;;19.75;6.80;;;14.30;99.90;;;;;;5051084;28;20048;-87
2023/06/08 07:02:40;;;;;;;17.80;6.55;;;13.60;99.90;;;;;;5051024;28;20049;-83
2023/06/08 07:05:07;;;;;;;17.25;6.68;;;14.00;99.90;;;;;;5051463;28;20403;-84
2023/06/08 07:07:33;;;;;;;14.90;6.45;;;14.30;99.90;;;;;;5051128;28;20049;-84
2023/06/08 07:09:59;;;;;;;16.85;6.00;;;14.40;99.90;;;;;;5051821;28;20092;-84
2023/06/08 07:12:24;;;;;;;18.15;6.72;;;14.70;99.90;;;;;;5049818;28;20072;-84
2023/06/08 07:14:50;;;;;;;17.75;6.97;;;15.50;99.90;;;;;;5052276;28;20408;-84
2023/06/08 07:17:15;;;;;;;14.63;6.40;;;15.00;99.90;;;;;;5050394;28;20048;-84
2023/06/08 07:19:42;;;;;;;18.52;7.07;;;15.10;99.90;;;;;;5051503;28;20420;-84
2023/06/08 07:22:08;;;;;;;13.05;5.82;;;14.90;99.90;;;;;;5050437;28;20128;-83
2023/06/08 07:24:34;;;;;;;17.10;6.80;;;14.90;99.90;;;;;;5052020;28;20108;-84
2023/06/08 07:26:59;;;;;;;13.73;6.07;;;15.10;99.90;;;;;;5050203;28;20481;-83
2023/06/08 07:29:25;;;;;;;14.65;6.43;;;15.80;99.90;;;;;;5051742;28;20136;-83
2023/06/08 07:31:51;;;;;;;14.60;6.03;;;16.10;99.90;;;;;;5052534;28;20044;-84
2023/06/08 07:34:16;;;;;;;12.50;5.97;;;15.70;99.90;;;;;;5054372;28;20051;-83
2023/06/08 07:36:42;;;;;;;13.85;5.75;;;15.80;99.90;;;;;;5054072;28;20041;-83
2023/06/08 07:39:08;;;;;;;14.95;6.53;;;15.90;99.90;;;;;;5053207;28;20137;-84
2023/06/08 07:41:34;;;;;;;14.05;5.93;;;16.00;99.90;;;;;;5055616;28;20456;-84
2023/06/08 07:44:01;;;;;;;14.13;6.32;;;16.10;99.90;;;;;;5055517;28;20064;-84
2023/06/08 07:46:26;;;;;;;16.17;6.35;;;16.20;99.90;;;;;;5054517;28;20045;-84
2023/06/08 07:48:52;;;;;;;16.35;6.28;;;16.20;99.90;;;;;;5054201;28;20060;-83
2023/06/08 07:51:18;;;;;;;18.52;6.97;;;16.30;99.90;;;;;;5054677;28;20037;-84
2023/06/08 07:53:44;;;;;;;15.63;6.68;;;16.40;99.90;;;;;;5052683;28;20092;-83
2023/06/08 07:56:12;;;;;;;17.23;7.32;;;16.70;99.90;;;;;;5054746;28;20095;-84
2023/06/08 07:58:38;;;;;;;15.07;6.28;;;16.60;99.90;;;;;;5054922;28;20044;-84
2023/06/08 08:01:04;;;;;;;15.40;6.75;;;16.90;99.90;;;;;;5054451;28;20029;-84
2023/06/08 08:03:32;;;;;;;13.70;6.57;;;17.20;99.90;;;;;;5053535;28;20542;-84
2023/06/08 08:05:58;;;;;;;15.93;6.55;;;17.10;99.90;;;;;;5055209;28;20051;-85
2023/06/08 08:08:23;;;;;;;14.93;6.55;;;16.90;99.90;;;;;;5052513;28;20044;-84
2023/06/08 08:10:49;;;;;;;18.45;7.25;;;16.80;99.90;;;;;;5053840;28;20517;-83
2023/06/08 08:13:15;;;;;;;16.48;6.63;;;17.50;99.90;;;;;;5053238;28;20484;-84
2023/06/08 08:15:40;;;;;;;13.77;6.53;;;16.80;99.90;;;;;;5053097;28;20094;-84
2023/06/08 08:18:06;;;;;;;15.57;6.15;;;16.90;99.90;;;;;;5053060;28;20053;-84
2023/06/08 08:20:32;;;;;;;15.27;5.85;;;17.10;99.90;;;;;;5054845;28;20500;-84
2023/06/08 08:22:58;;;;;;;14.82;5.95;;;17.30;99.90;;;;;;5052548;28;20037;-84
2023/06/08 08:25:24;;;;;;;14.93;6.03;;;17.30;99.90;;;;;;5054444;28;20044;-84
2023/06/08 08:27:50;;;;;;;14.60;5.80;;;17.30;99.90;;;;;;5054361;28;20416;-84
2023/06/08 08:30:16;;;;;;;12.68;5.45;;;17.60;99.90;;;;;;5053498;28;20053;-84
2023/06/08 08:32:42;;;;;;;15.32;5.85;;;17.60;99.90;;;;;;5053555;28;20040;-85
2023/06/08 08:35:17;;;;;;;13.70;5.72;;;17.80;99.90;;;;;;5054580;28;20052;-84
2023/06/08 08:38:08;;;;;;;14.27;5.82;;;18.10;99.90;;;;;;5052844;28;20135;-84
2023/06/08 08:40:42;;;;;;;14.00;5.60;;;18.20;99.90;;;;;;5054461;28;20056;-84
2023/06/08 08:43:10;;;;;;;13.90;5.40;;;18.50;99.90;;;;;;5051368;28;20045;-84
2023/06/08 08:45:39;;;;;;;17.05;5.35;;;18.60;99.90;;;;;;5052809;28;20037;-84
2023/06/08 08:48:07;;;;;;;14.25;5.10;;;19.80;99.90;;;;;;5054048;28;20041;-84
2023/06/08 08:50:38;;;;;;;15.93;5.10;;;18.80;99.90;;;;;;5053512;28;20048;-84
2023/06/08 08:53:06;;;;;;;13.90;5.03;;;18.90;99.90;;;;;;5052460;28;20064;-85
2023/06/08 08:55:33;;;;;;;13.95;5.68;;;19.10;99.90;;;;;;5054134;28;20060;-84
2023/06/08 08:58:05;;;;;;;13.48;5.32;;;19.40;99.90;;;;;;5052137;28;20049;-84
2023/06/08 09:00:31;;;;;;;13.13;5.25;;;19.40;99.90;;;;;;5052433;28;20045;-84
2023/06/08 09:02:57;;;;;;;12.10;4.88;;;19.40;99.90;;;;;;5053035;28;20056;-84
2023/06/08 09:05:23;;;;;;;13.85;5.38;;;19.30;99.90;;;;;;5053049;28;20037;-84
2023/06/08 09:07:52;;;;;;;10.07;4.53;;;19.30;99.90;;;;;;5053666;28;20507;-84
2023/06/08 09:10:24;;;;;;;13.60;4.47;;;19.50;99.90;;;;;;5052368;28;20049;-84
2023/06/08 09:12:51;;;;;;;12.55;5.45;;;19.70;99.90;;;;;;5052258;28;20055;-84
2023/06/08 09:15:26;;;;;;;13.02;5.05;;;19.70;99.90;;;;;;5052056;28;20095;-84
2023/06/08 09:17:53;;;;;;;14.07;5.68;;;19.50;99.90;;;;;;5052899;28;20103;-84
2023/06/08 09:20:27;;;;;;;12.52;4.55;;;19.40;99.90;;;;;;5051933;28;20127;-85
2023/06/08 09:22:53;;;;;;;12.05;4.80;;;19.30;99.90;;;;;;5052119;28;20053;-84
2023/06/08 09:25:36;;;;;;;11.70;4.63;;;19.80;99.90;;;;;;5052315;28;20392;-84
2023/06/08 09:28:32;;;;;;;12.35;4.63;;;19.50;99.90;;;;;;5053404;28;20099;-84
2023/06/08 09:30:58;;;;;;;11.90;5.22;;;19.90;99.90;;;;;;5053503;28;20045;-84
2023/06/08 09:33:25;;;;;;;16.92;5.10;;;20.30;99.90;;;;;;5052101;28;20497;-85
2023/06/08 09:36:15;;;;;;;12.18;4.30;;;20.60;99.90;;;;;;5052064;28;20082;-84
2023/06/08 09:38:42;;;;;;;14.20;5.40;;;20.90;99.90;;;;;;5051104;28;20045;-84
2023/06/08 09:41:19;;;;;;;12.77;4.78;;;20.90;99.90;;;;;;5053119;28;20106;-85
2023/06/08 09:43:47;;;;;;;12.43;4.70;;;21.00;99.70;;;;;;5052085;28;20106;-84
2023/06/08 09:46:30;;;;;;;10.82;4.28;;;21.00;99.90;;;;;;5051892;28;20476;-84
2023/06/08 09:48:56;;;;;;;11.02;4.32;;;21.20;99.90;;;;;;5051615;28;20045;-84
2023/06/08 09:51:23;;;;;;;10.85;4.20;;;21.30;99.90;;;;;;5051346;28;20037;-85
2023/06/08 09:53:57;;;;;;;12.55;4.80;;;21.50;99.90;;;;;;5049876;28;20053;-85
2023/06/08 09:56:25;;;;;;;15.55;4.22;;;21.60;99.20;;;;;;5052490;28;20049;-84
2023/06/08 09:58:53;;;;;;;14.77;4.57;;;21.70;99.60;;;;;;5051558;28;20045;-84
2023/06/08 10:01:25;;;;;;;13.63;5.15;;;21.90;99.30;;;;;;5052041;28;20036;-84
2023/06/08 10:03:52;;;;;;;11.50;4.55;;;22.30;99.00;;;;;;5051545;28;20071;-82
2023/06/08 10:06:20;;;;;;;14.52;4.47;;;22.00;98.60;;;;;;5051389;28;20182;-82
2023/06/08 10:08:51;;;;;;;13.13;4.57;;;22.10;98.20;;;;;;5051863;28;20045;-84
2023/06/08 10:11:17;;;;;;;11.90;4.60;;;21.90;98.00;;;;;;5052353;28;20094;-84
2023/06/08 10:13:43;;;;;;;13.95;4.70;;;22.10;97.80;;;;;;5052128;28;20112;-84
2023/06/08 10:16:10;;;;;;;12.75;4.50;;;22.10;97.40;;;;;;5051101;28;20516;-84
2023/06/08 10:18:37;;;;;;;13.02;4.72;;;22.30;97.30;;;;;;5051315;28;20041;-84
2023/06/08 10:21:04;;;;;;;12.02;4.45;;;22.30;97.60;;;;;;5050891;28;20056;-84
2023/06/08 10:23:31;;;;;;;12.05;4.53;;;22.30;96.80;;;;;;5050960;28;20103;-84
2023/06/08 10:25:57;;;;;;;12.60;4.38;;;22.30;97.00;;;;;;5052689;28;20033;-84
2023/06/08 10:28:23;;;;;;;11.73;4.60;;;22.50;96.90;;;;;;5050370;28;20053;-84
2023/06/08 10:30:49;;;;;;;12.02;4.80;;;22.40;96.60;;;;;;5052664;28;20043;-84
2023/06/08 10:33:19;;;;;;;14.98;4.70;;;22.30;96.50;;;;;;5051185;28;20497;-84
2023/06/08 10:36:06;;;;;;;12.60;4.60;;;22.20;96.60;;;;;;5051939;28;20465;-84
2023/06/08 10:38:37;;;;;;;14.18;4.88;;;22.30;96.50;;;;;;5052182;28;20042;-84
2023/06/08 10:41:04;;;;;;;11.80;5.05;;;22.40;96.90;;;;;;5052369;28;20528;-82
2023/06/08 10:43:29;;;;;;;11.38;4.95;;;22.40;97.00;;;;;;5050357;28;20049;-84
2023/06/08 10:45:57;;;;;;;11.18;4.32;;;22.60;97.10;;;;;;5052548;28;20055;-84
2023/06/08 10:48:23;;;;;;;11.93;4.50;;;23.00;96.70;;;;;;5051024;28;20033;-84
2023/06/08 10:50:50;;;;;;;11.60;4.55;;;23.20;96.80;;;;;;5051388;28;20511;-84
2023/06/08 10:53:20;;;;;;;12.45;4.60;;;23.70;96.30;;;;;;5050511;28;20128;-84
2023/06/08 10:55:50;;;;;;;12.10;5.18;;;23.20;96.20;;;;;;5050989;28;20045;-84
2023/06/08 10:58:20;;;;;;;13.02;5.25;;;23.40;96.40;;;;;;5050028;28;20075;-85
2023/06/08 11:00:50;;;;;;;11.85;4.65;;;23.50;95.80;;;;;;5052535;28;20429;-84
2023/06/08 11:03:20;;;;;;;11.27;4.78;;;23.80;95.90;;;;;;5051436;28;20079;-82
2023/06/08 11:05:53;;;;;;;13.13;5.00;;;23.70;95.80;;;;;;5054658;28;20051;-83
2023/06/08 11:08:19;;;;;;;10.75;4.72;;;23.80;95.60;;;;;;5055559;28;20504;-82
2023/06/08 11:10:51;;;;;;;13.52;5.35;;;24.10;95.90;;;;;;5054251;28;20079;-82
2023/06/08 11:13:17;;;;;;;13.60;4.50;;;24.20;95.50;;;;;;5055909;28;20064;-82
2023/06/08 11:15:46;;;;;;;9.98;4.15;;;24.40;95.60;;;;;;5055908;28;20942;-83
2023/06/08 11:18:12;;;;;;;12.02;4.88;;;24.50;95.40;;;;;;5053749;28;20484;-82
2023/06/08 11:20:40;;;;;;;10.85;4.53;;;24.40;95.30;;;;;;5054732;28;20083;-82
2023/06/08 11:23:11;;;;;;;12.63;4.78;;;24.60;95.20;;;;;;5054412;28;20059;-82
2023/06/08 11:25:38;;;;;;;11.25;4.57;;;24.70;95.00;;;;;;5053726;28;20041;-83
2023/06/08 11:28:08;;;;;;;11.65;4.75;;;24.80;95.00;;;;;;5055692;28;20091;-82
2023/06/08 11:30:37;;;;;;;11.98;4.43;;;24.60;94.90;;;;;;5054529;28;20084;-82
2023/06/08 11:33:08;;;;;;;11.43;4.93;;;24.40;94.90;;;;;;5053585;28;20052;-82
2023/06/08 11:35:34;;;;;;;12.07;4.38;;;24.30;94.50;;;;;;5066630;28;20072;-83
2023/06/08 11:38:00;;;;;;;12.43;4.40;;;24.20;94.70;;;;;;5071256;28;20041;-82
2023/06/08 11:40:31;;;;;;;10.75;4.32;;;24.40;94.80;;;;;;5064455;28;20096;-81
2023/06/08 11:42:57;;;;;;;14.20;4.45;;;24.90;94.80;;;;;;5054205;28;20048;-82
2023/06/08 11:45:23;;;;;;;13.55;4.95;;;25.10;94.40;;;;;;5053363;28;20392;-82
2023/06/08 11:47:53;;;;;;;10.90;4.40;;;25.40;94.40;;;;;;5054578;28;20084;-83
2023/06/08 11:50:20;;;;;;;12.82;4.65;;;25.80;94.20;;;;;;5055255;28;20071;-82
2023/06/08 11:52:46;;;;;;;11.18;4.93;;;25.70;93.90;;;;;;5054309;28;20036;-82
2023/06/08 11:55:15;;;;;;;13.73;4.63;;;25.80;93.80;;;;;;5055016;28;20056;-83
2023/06/08 11:57:42;;;;;;;12.23;4.90;;;25.80;93.60;;;;;;5053728;28;20077;-82
2023/06/08 12:00:14;;;;;;;16.67;5.00;;;25.70;93.60;;;;;;5052830;28;20231;-82
2023/06/08 12:02:40;;;;;;;11.73;4.60;;;25.90;93.70;;;;;;5055380;28;20136;-82
2023/06/08 12:05:06;;;;;;;12.25;5.07;;;26.10;93.60;;;;;;5053421;28;20132;-82
2023/06/08 12:07:33;;;;;;;13.02;4.43;;;26.40;93.70;;;;;;5054153;28;20041;-82
2023/06/08 12:10:00;;;;;;;13.88;4.57;;;26.80;93.50;;;;;;5053509;28;20135;-82
2023/06/08 12:12:29;;;;;;;13.25;4.93;;;27.00;93.40;;;;;;5053267;28;20501;-82
2023/06/08 12:14:55;;;;;;;11.18;4.72;;;26.90;93.10;;;;;;5054189;28;20048;-82
2023/06/08 12:17:28;;;;;;;12.10;5.05;;;26.70;93.10;;;;;;5052313;28;20106;-82
2023/06/08 12:19:54;;;;;;;12.05;4.88;;;26.90;92.80;;;;;;5053496;28;20102;-82
2023/06/08 12:22:20;;;;;;;13.10;4.60;;;27.00;92.80;;;;;;5052484;28;20045;-82
2023/06/08 12:24:46;;;;;;;13.75;5.13;;;27.00;92.80;;;;;;5053244;28;20140;-82
2023/06/08 12:27:12;;;;;;;14.25;4.80;;;27.00;92.50;;;;;;5052982;28;20045;-83
2023/06/08 12:29:40;;;;;;;11.52;4.80;;;26.90;92.40;;;;;;5052557;28;20467;-82
2023/06/08 12:32:06;;;;;;;11.85;5.18;;;26.90;92.40;;;;;;5053687;28;20056;-82
2023/06/08 12:34:32;;;;;;;12.45;4.90;;;27.00;92.40;;;;;;5053659;28;20040;-82
2023/06/08 12:36:58;;;;;;;13.10;4.75;;;27.20;92.30;;;;;;5053007;28;20037;-82
2023/06/08 12:39:24;;;;;;;12.52;5.10;;;27.20;92.10;;;;;;5053954;28;20067;-82